Trenton, NJ

11:25 PM EDT on September 01, 2014 (GMT -0400)
Morris Heights | Change Station
CLOSE
Current Station
Personal Weather Station
Location: Morrisville, PA
Elevation: 89 ft
Nearby Weather Stations

Elev 89 ft 40.22 °N, 74.78 °W | Updated 2 seconds ago

Mostly Cloudy
Mostly Cloudy
79.4 °F
Feels Like 83 °F
N
0.6
Wind Variable Wind from South
Gusts 1.3 mph

Today
High -- | Low -- °F
--% Chance of Precip.
Yesterday
High -- | Low -- °F
Precip. -- in
6:26 AM 7:30 PM
Waxing Crescent, 47% visible
Pressure 29.94 in
Visibility 10.0 miles
Clouds Mostly Cloudy 7500 ft
Heat Index 83 °F
Dew Point 74 °F
Humidity 83%
Rainfall 0.11 in
Snow Depth Not available.
UV 0 out of 12
Pollen 4.30 out of 12
Ozone Good
PM2.5 Good
Flu Activity Not available.
METAR KTTN 020253Z AUTO 21003KT 10SM BKN075 26/22 A2996 RMK AO2 SLP138 T02610222 53008

More Conditions Fewer Conditions

Pressure 29.94 in
Visibility 10.0 miles
Clouds Mostly Cloudy 7500 ft
Heat Index 83 °F
Dew Point 74 °F
Humidity 83%
Rainfall 0.11 in
Snow Depth Not available.
UV 0 out of 12
Pollen 4.30 out of 12
Ozone Good
PM2.5 Good
Flu Activity Not available.
METAR KTTN 020253Z AUTO 21003KT 10SM BKN075 26/22 A2996 RMK AO2 SLP138 T02610222 53008

More Conditions Fewer Conditions

10-Day Weather Forecast

Almanac

Astronomy

Sep. 01, 2014 Rise Set
Actual Time 6:26 AM EDT 7:30 PM EDT
Civil Twilight 5:58 AM EDT 7:58 PM EDT
Nautical Twilight 5:25 AM EDT 8:31 PM EDT
Astronomical Twilight 4:50 AM EDT 9:06 PM EDT
Moon 1:10 PM EDT (9/1) 11:29 PM EDT (9/1)
Length of Visible Light 13h 59m
Length of Day
13h 04m
Tomorrow will be 2m 33s shorter.
Waxing Crescent, 47% of the Moon is Illuminated
Today
Waxing Crescent
Sep 2
First Quarter
Sep 8
Full
Sep 15
Last Quarter
Sep 24
New

Today's Extremes

State Highs State Lows

Community

WunderPhotos

Upload Photos

1,749,546 photos uploaded!

WunderBlogs® & News

Nearby

Air Quality

  Air Quality AQ Index Pollutant
Yesterday Moderate
PM2.5
Yesterday Good
OZONE
Current Good
PM2.5
Current Good
OZONE
Monday Moderate
PM2.5
Monday Good
OZONE
Tuesday Moderate
OZONE
Tuesday Moderate
PM2.5
Wednesday Moderate
OZONE
Wednesday Good
PM2.5
Thursday Moderate
OZONE
Thursday Moderate
PM2.5

Snow Depth

Station Depth Elevation
No new snow has been reported.

Earthquake Activity

City Distance Mag. Time & Date
No recent earthquake activity has been reported nearby.
Minimum magnitude displayed is 2.5.

Coastal Water Temperatures

Place Temperature
No Stations Reporting

Nearby Weather Stations